sensor_id;sensor_type;location;lat;lon;timestamp;P1;durP1;ratioP1;P2;durP2;ratioP2
80340;SDS011;69656;44.498;0.166;2023-12-29T00:00:03;17.00;;;7.73;;
80340;SDS011;69656;44.498;0.166;2023-12-29T00:05:36;13.23;;;7.93;;
80340;SDS011;69656;44.498;0.166;2023-12-29T00:11:15;17.97;;;8.63;;
80340;SDS011;69656;44.498;0.166;2023-12-29T00:16:40;12.77;;;8.50;;
80340;SDS011;69656;44.498;0.166;2023-12-29T00:22:12;13.00;;;8.17;;
80340;SDS011;69656;44.498;0.166;2023-12-29T00:27:45;15.17;;;9.00;;
80340;SDS011;69656;44.498;0.166;2023-12-29T00:33:19;13.87;;;8.00;;
80340;SDS011;69656;44.498;0.166;2023-12-29T00:38:51;14.53;;;8.30;;
80340;SDS011;69656;44.498;0.166;2023-12-29T00:44:23;16.60;;;9.43;;
80340;SDS011;69656;44.498;0.166;2023-12-29T00:49:57;18.17;;;9.63;;
80340;SDS011;69656;44.498;0.166;2023-12-29T00:55:30;16.00;;;9.23;;
80340;SDS011;69656;44.498;0.166;2023-12-29T01:01:02;15.60;;;8.60;;
80340;SDS011;69656;44.498;0.166;2023-12-29T01:06:34;16.07;;;7.93;;
80340;SDS011;69656;44.498;0.166;2023-12-29T01:12:08;16.57;;;8.80;;
80340;SDS011;69656;44.498;0.166;2023-12-29T01:17:40;15.33;;;9.83;;
80340;SDS011;69656;44.498;0.166;2023-12-29T01:23:12;14.47;;;8.43;;
80340;SDS011;69656;44.498;0.166;2023-12-29T01:28:45;14.63;;;8.00;;
80340;SDS011;69656;44.498;0.166;2023-12-29T01:34:18;15.67;;;8.77;;
80340;SDS011;69656;44.498;0.166;2023-12-29T01:39:51;14.80;;;9.60;;
80340;SDS011;69656;44.498;0.166;2023-12-29T01:45:24;13.47;;;9.00;;
80340;SDS011;69656;44.498;0.166;2023-12-29T01:50:57;13.80;;;8.53;;
80340;SDS011;69656;44.498;0.166;2023-12-29T01:56:30;13.37;;;8.97;;
80340;SDS011;69656;44.498;0.166;2023-12-29T02:02:03;13.23;;;8.77;;
80340;SDS011;69656;44.498;0.166;2023-12-29T02:07:35;14.83;;;9.07;;
80340;SDS011;69656;44.498;0.166;2023-12-29T02:13:07;16.40;;;8.83;;
80340;SDS011;69656;44.498;0.166;2023-12-29T02:18:40;15.43;;;9.37;;
80340;SDS011;69656;44.498;0.166;2023-12-29T02:24:14;13.43;;;9.33;;
80340;SDS011;69656;44.498;0.166;2023-12-29T02:29:48;14.03;;;8.13;;
80340;SDS011;69656;44.498;0.166;2023-12-29T02:35:21;17.47;;;9.80;;
80340;SDS011;69656;44.498;0.166;2023-12-29T02:40:51;17.87;;;9.67;;
80340;SDS011;69656;44.498;0.166;2023-12-29T02:46:24;18.53;;;9.10;;
80340;SDS011;69656;44.498;0.166;2023-12-29T02:51:57;20.33;;;10.20;;
80340;SDS011;69656;44.498;0.166;2023-12-29T02:57:30;18.37;;;10.10;;
80340;SDS011;69656;44.498;0.166;2023-12-29T03:03:01;19.63;;;10.93;;
80340;SDS011;69656;44.498;0.166;2023-12-29T03:08:33;18.37;;;10.70;;
80340;SDS011;69656;44.498;0.166;2023-12-29T03:14:07;16.90;;;8.57;;
80340;SDS011;69656;44.498;0.166;2023-12-29T03:19:39;18.97;;;9.90;;
80340;SDS011;69656;44.498;0.166;2023-12-29T03:25:11;20.47;;;11.07;;
80340;SDS011;69656;44.498;0.166;2023-12-29T03:30:44;19.90;;;11.43;;
80340;SDS011;69656;44.498;0.166;2023-12-29T03:36:17;23.17;;;12.13;;
80340;SDS011;69656;44.498;0.166;2023-12-29T03:41:50;19.80;;;10.97;;
80340;SDS011;69656;44.498;0.166;2023-12-29T03:47:21;15.87;;;10.17;;
80340;SDS011;69656;44.498;0.166;2023-12-29T03:52:53;18.60;;;9.80;;
80340;SDS011;69656;44.498;0.166;2023-12-29T03:58:27;16.23;;;9.50;;
80340;SDS011;69656;44.498;0.166;2023-12-29T04:04:00;19.00;;;12.17;;
80340;SDS011;69656;44.498;0.166;2023-12-29T04:09:31;17.80;;;9.50;;
80340;SDS011;69656;44.498;0.166;2023-12-29T04:15:04;19.23;;;9.80;;
80340;SDS011;69656;44.498;0.166;2023-12-29T04:20:36;18.83;;;10.50;;
80340;SDS011;69656;44.498;0.166;2023-12-29T04:26:08;16.67;;;8.93;;
80340;SDS011;69656;44.498;0.166;2023-12-29T04:31:41;17.10;;;9.53;;
80340;SDS011;69656;44.498;0.166;2023-12-29T04:37:14;18.67;;;11.07;;
80340;SDS011;69656;44.498;0.166;2023-12-29T04:42:47;15.73;;;9.03;;
80340;SDS011;69656;44.498;0.166;2023-12-29T04:48:21;19.80;;;9.80;;
80340;SDS011;69656;44.498;0.166;2023-12-29T04:53:53;16.33;;;9.80;;
80340;SDS011;69656;44.498;0.166;2023-12-29T04:59:26;22.20;;;10.97;;
80340;SDS011;69656;44.498;0.166;2023-12-29T05:04:59;13.77;;;9.00;;
80340;SDS011;69656;44.498;0.166;2023-12-29T05:10:31;19.00;;;10.30;;
80340;SDS011;69656;44.498;0.166;2023-12-29T05:16:04;15.57;;;8.87;;
80340;SDS011;69656;44.498;0.166;2023-12-29T05:21:36;21.40;;;10.80;;
80340;SDS011;69656;44.498;0.166;2023-12-29T05:27:10;16.63;;;9.60;;
80340;SDS011;69656;44.498;0.166;2023-12-29T05:32:43;21.03;;;12.13;;
80340;SDS011;69656;44.498;0.166;2023-12-29T05:38:15;22.27;;;12.53;;
80340;SDS011;69656;44.498;0.166;2023-12-29T05:43:48;23.37;;;12.20;;
80340;SDS011;69656;44.498;0.166;2023-12-29T05:49:24;20.47;;;11.13;;
80340;SDS011;69656;44.498;0.166;2023-12-29T05:54:54;23.20;;;12.27;;
80340;SDS011;69656;44.498;0.166;2023-12-29T06:00:27;15.57;;;9.73;;
80340;SDS011;69656;44.498;0.166;2023-12-29T06:05:58;21.80;;;11.77;;
80340;SDS011;69656;44.498;0.166;2023-12-29T06:11:30;20.67;;;11.20;;
80340;SDS011;69656;44.498;0.166;2023-12-29T06:17:03;23.53;;;13.30;;
80340;SDS011;69656;44.498;0.166;2023-12-29T06:22:34;23.40;;;12.63;;
80340;SDS011;69656;44.498;0.166;2023-12-29T06:28:07;26.50;;;13.13;;
80340;SDS011;69656;44.498;0.166;2023-12-29T06:33:40;24.93;;;12.17;;
80340;SDS011;69656;44.498;0.166;2023-12-29T06:39:12;23.63;;;11.60;;
80340;SDS011;69656;44.498;0.166;2023-12-29T06:44:45;20.03;;;10.80;;
80340;SDS011;69656;44.498;0.166;2023-12-29T06:50:18;26.40;;;12.47;;
80340;SDS011;69656;44.498;0.166;2023-12-29T06:55:50;21.60;;;12.20;;
80340;SDS011;69656;44.498;0.166;2023-12-29T07:01:24;23.33;;;12.13;;
80340;SDS011;69656;44.498;0.166;2023-12-29T07:06:57;20.80;;;11.23;;
80340;SDS011;69656;44.498;0.166;2023-12-29T07:12:29;17.53;;;11.13;;
80340;SDS011;69656;44.498;0.166;2023-12-29T07:18:02;18.60;;;9.87;;
80340;SDS011;69656;44.498;0.166;2023-12-29T07:23:34;21.90;;;12.40;;
80340;SDS011;69656;44.498;0.166;2023-12-29T07:29:07;21.10;;;11.17;;
80340;SDS011;69656;44.498;0.166;2023-12-29T07:34:39;22.87;;;13.43;;
80340;SDS011;69656;44.498;0.166;2023-12-29T07:40:13;22.37;;;12.33;;
80340;SDS011;69656;44.498;0.166;2023-12-29T07:45:46;22.53;;;11.60;;
80340;SDS011;69656;44.498;0.166;2023-12-29T07:51:19;20.73;;;11.30;;
80340;SDS011;69656;44.498;0.166;2023-12-29T07:56:52;24.40;;;12.93;;
80340;SDS011;69656;44.498;0.166;2023-12-29T08:02:24;20.00;;;11.00;;
80340;SDS011;69656;44.498;0.166;2023-12-29T08:07:58;23.13;;;13.40;;
80340;SDS011;69656;44.498;0.166;2023-12-29T08:13:31;27.40;;;12.80;;
80340;SDS011;69656;44.498;0.166;2023-12-29T08:19:04;20.13;;;10.97;;
80340;SDS011;69656;44.498;0.166;2023-12-29T08:24:40;32.83;;;13.90;;
80340;SDS011;69656;44.498;0.166;2023-12-29T08:30:09;22.53;;;12.50;;
80340;SDS011;69656;44.498;0.166;2023-12-29T08:35:42;24.20;;;12.90;;
80340;SDS011;69656;44.498;0.166;2023-12-29T08:41:15;20.00;;;11.80;;
80340;SDS011;69656;44.498;0.166;2023-12-29T08:46:49;21.00;;;12.20;;
80340;SDS011;69656;44.498;0.166;2023-12-29T08:52:22;19.93;;;11.23;;
80340;SDS011;69656;44.498;0.166;2023-12-29T08:57:55;16.63;;;10.30;;
80340;SDS011;69656;44.498;0.166;2023-12-29T09:03:30;18.27;;;8.93;;
80340;SDS011;69656;44.498;0.166;2023-12-29T09:09:03;14.03;;;8.53;;
80340;SDS011;69656;44.498;0.166;2023-12-29T09:14:36;14.03;;;8.17;;
80340;SDS011;69656;44.498;0.166;2023-12-29T09:20:10;10.53;;;7.70;;
80340;SDS011;69656;44.498;0.166;2023-12-29T09:25:43;9.20;;;7.00;;
80340;SDS011;69656;44.498;0.166;2023-12-29T09:31:15;11.60;;;7.73;;
80340;SDS011;69656;44.498;0.166;2023-12-29T09:36:48;8.60;;;6.73;;
80340;SDS011;69656;44.498;0.166;2023-12-29T09:42:21;11.10;;;8.07;;
80340;SDS011;69656;44.498;0.166;2023-12-29T09:47:53;13.57;;;7.37;;
80340;SDS011;69656;44.498;0.166;2023-12-29T09:53:27;10.97;;;7.33;;
80340;SDS011;69656;44.498;0.166;2023-12-29T09:58:59;10.40;;;7.00;;
80340;SDS011;69656;44.498;0.166;2023-12-29T10:04:32;12.37;;;7.30;;
80340;SDS011;69656;44.498;0.166;2023-12-29T10:10:06;9.97;;;7.40;;
80340;SDS011;69656;44.498;0.166;2023-12-29T10:15:42;10.83;;;7.33;;
80340;SDS011;69656;44.498;0.166;2023-12-29T10:21:17;11.70;;;6.63;;
80340;SDS011;69656;44.498;0.166;2023-12-29T10:26:44;12.53;;;6.90;;
80340;SDS011;69656;44.498;0.166;2023-12-29T10:32:17;10.03;;;6.90;;
80340;SDS011;69656;44.498;0.166;2023-12-29T10:37:51;11.03;;;6.67;;
80340;SDS011;69656;44.498;0.166;2023-12-29T10:43:24;10.70;;;6.57;;
80340;SDS011;69656;44.498;0.166;2023-12-29T10:48:59;9.77;;;7.57;;
80340;SDS011;69656;44.498;0.166;2023-12-29T10:54:29;10.43;;;6.73;;
80340;SDS011;69656;44.498;0.166;2023-12-29T11:00:03;9.50;;;6.47;;
80340;SDS011;69656;44.498;0.166;2023-12-29T11:05:33;11.33;;;6.80;;
80340;SDS011;69656;44.498;0.166;2023-12-29T11:11:06;12.67;;;7.27;;
80340;SDS011;69656;44.498;0.166;2023-12-29T11:16:38;16.63;;;9.17;;
80340;SDS011;69656;44.498;0.166;2023-12-29T11:22:10;14.67;;;8.77;;
80340;SDS011;69656;44.498;0.166;2023-12-29T11:27:43;11.83;;;8.67;;
80340;SDS011;69656;44.498;0.166;2023-12-29T11:33:17;12.73;;;9.13;;
80340;SDS011;69656;44.498;0.166;2023-12-29T11:38:49;19.70;;;10.03;;
80340;SDS011;69656;44.498;0.166;2023-12-29T11:44:24;12.90;;;8.13;;
80340;SDS011;69656;44.498;0.166;2023-12-29T11:50:00;13.97;;;8.43;;
80340;SDS011;69656;44.498;0.166;2023-12-29T11:55:28;14.47;;;8.33;;
80340;SDS011;69656;44.498;0.166;2023-12-29T12:00:58;13.23;;;8.00;;
80340;SDS011;69656;44.498;0.166;2023-12-29T12:06:38;17.67;;;9.10;;
80340;SDS011;69656;44.498;0.166;2023-12-29T12:12:04;14.53;;;9.20;;
80340;SDS011;69656;44.498;0.166;2023-12-29T12:17:36;12.93;;;8.40;;
80340;SDS011;69656;44.498;0.166;2023-12-29T12:23:11;13.20;;;7.50;;
80340;SDS011;69656;44.498;0.166;2023-12-29T12:28:42;9.37;;;6.73;;
80340;SDS011;69656;44.498;0.166;2023-12-29T12:34:16;15.80;;;6.37;;
80340;SDS011;69656;44.498;0.166;2023-12-29T12:39:49;11.73;;;6.20;;
80340;SDS011;69656;44.498;0.166;2023-12-29T12:45:22;8.63;;;5.60;;
80340;SDS011;69656;44.498;0.166;2023-12-29T12:50:55;8.30;;;6.53;;
80340;SDS011;69656;44.498;0.166;2023-12-29T12:56:28;9.40;;;6.80;;
80340;SDS011;69656;44.498;0.166;2023-12-29T13:02:02;11.50;;;6.70;;
80340;SDS011;69656;44.498;0.166;2023-12-29T13:07:36;8.53;;;6.33;;
80340;SDS011;69656;44.498;0.166;2023-12-29T13:13:08;6.70;;;5.43;;
80340;SDS011;69656;44.498;0.166;2023-12-29T13:18:41;8.60;;;6.27;;
80340;SDS011;69656;44.498;0.166;2023-12-29T13:24:12;9.47;;;6.43;;
80340;SDS011;69656;44.498;0.166;2023-12-29T13:29:44;8.43;;;5.90;;
80340;SDS011;69656;44.498;0.166;2023-12-29T13:35:18;11.40;;;5.37;;
80340;SDS011;69656;44.498;0.166;2023-12-29T13:40:53;9.83;;;6.57;;
80340;SDS011;69656;44.498;0.166;2023-12-29T13:46:22;8.87;;;6.30;;
80340;SDS011;69656;44.498;0.166;2023-12-29T13:51:59;8.47;;;6.90;;
80340;SDS011;69656;44.498;0.166;2023-12-29T13:57:29;8.27;;;6.57;;
80340;SDS011;69656;44.498;0.166;2023-12-29T14:03:02;11.83;;;7.20;;
80340;SDS011;69656;44.498;0.166;2023-12-29T14:08:33;11.03;;;7.13;;
80340;SDS011;69656;44.498;0.166;2023-12-29T14:14:06;10.00;;;6.57;;
80340;SDS011;69656;44.498;0.166;2023-12-29T14:19:39;10.87;;;6.60;;
80340;SDS011;69656;44.498;0.166;2023-12-29T14:25:12;8.37;;;6.70;;
80340;SDS011;69656;44.498;0.166;2023-12-29T14:30:44;9.63;;;6.63;;
80340;SDS011;69656;44.498;0.166;2023-12-29T14:36:17;13.10;;;7.60;;
80340;SDS011;69656;44.498;0.166;2023-12-29T14:41:49;10.97;;;7.33;;
80340;SDS011;69656;44.498;0.166;2023-12-29T14:47:23;12.10;;;7.00;;
80340;SDS011;69656;44.498;0.166;2023-12-29T14:52:56;9.20;;;6.37;;
80340;SDS011;69656;44.498;0.166;2023-12-29T14:58:30;9.80;;;6.73;;
80340;SDS011;69656;44.498;0.166;2023-12-29T15:04:04;13.03;;;7.00;;
80340;SDS011;69656;44.498;0.166;2023-12-29T15:09:38;11.13;;;6.90;;
80340;SDS011;69656;44.498;0.166;2023-12-29T15:15:09;9.40;;;6.80;;
80340;SDS011;69656;44.498;0.166;2023-12-29T15:20:41;9.63;;;6.60;;
80340;SDS011;69656;44.498;0.166;2023-12-29T15:26:15;11.37;;;6.93;;
80340;SDS011;69656;44.498;0.166;2023-12-29T15:31:47;12.03;;;7.13;;
80340;SDS011;69656;44.498;0.166;2023-12-29T15:37:21;9.17;;;6.47;;
80340;SDS011;69656;44.498;0.166;2023-12-29T15:42:54;13.80;;;6.87;;
80340;SDS011;69656;44.498;0.166;2023-12-29T15:48:27;13.20;;;7.80;;
80340;SDS011;69656;44.498;0.166;2023-12-29T15:54:02;11.03;;;6.97;;
80340;SDS011;69656;44.498;0.166;2023-12-29T15:59:33;12.03;;;7.50;;
80340;SDS011;69656;44.498;0.166;2023-12-29T16:05:06;10.33;;;7.40;;
80340;SDS011;69656;44.498;0.166;2023-12-29T16:10:37;19.67;;;8.17;;
80340;SDS011;69656;44.498;0.166;2023-12-29T16:16:10;12.63;;;7.23;;
80340;SDS011;69656;44.498;0.166;2023-12-29T16:21:42;11.17;;;7.93;;
80340;SDS011;69656;44.498;0.166;2023-12-29T16:27:14;11.83;;;7.57;;
80340;SDS011;69656;44.498;0.166;2023-12-29T16:32:47;17.10;;;9.87;;
80340;SDS011;69656;44.498;0.166;2023-12-29T16:38:20;13.07;;;8.47;;
80340;SDS011;69656;44.498;0.166;2023-12-29T16:43:53;12.40;;;8.90;;
80340;SDS011;69656;44.498;0.166;2023-12-29T16:49:25;17.13;;;9.97;;
80340;SDS011;69656;44.498;0.166;2023-12-29T16:55:00;17.03;;;9.80;;
80340;SDS011;69656;44.498;0.166;2023-12-29T17:00:32;18.27;;;10.43;;
80340;SDS011;69656;44.498;0.166;2023-12-29T17:06:05;21.13;;;11.37;;
80340;SDS011;69656;44.498;0.166;2023-12-29T17:11:39;18.27;;;11.23;;
80340;SDS011;69656;44.498;0.166;2023-12-29T17:17:11;18.27;;;10.40;;
80340;SDS011;69656;44.498;0.166;2023-12-29T17:22:44;15.80;;;9.70;;
80340;SDS011;69656;44.498;0.166;2023-12-29T17:28:16;17.33;;;10.87;;
80340;SDS011;69656;44.498;0.166;2023-12-29T17:33:49;17.57;;;10.07;;
80340;SDS011;69656;44.498;0.166;2023-12-29T17:39:21;15.70;;;10.23;;
80340;SDS011;69656;44.498;0.166;2023-12-29T17:44:53;17.27;;;9.73;;
80340;SDS011;69656;44.498;0.166;2023-12-29T17:50:25;20.73;;;11.37;;
80340;SDS011;69656;44.498;0.166;2023-12-29T17:55:59;20.60;;;11.67;;
80340;SDS011;69656;44.498;0.166;2023-12-29T18:01:32;22.30;;;12.00;;
80340;SDS011;69656;44.498;0.166;2023-12-29T18:07:05;22.33;;;11.50;;
80340;SDS011;69656;44.498;0.166;2023-12-29T18:12:38;17.93;;;11.30;;
80340;SDS011;69656;44.498;0.166;2023-12-29T18:18:12;17.93;;;11.17;;
80340;SDS011;69656;44.498;0.166;2023-12-29T18:23:45;18.60;;;10.13;;
80340;SDS011;69656;44.498;0.166;2023-12-29T18:29:18;25.47;;;11.33;;
80340;SDS011;69656;44.498;0.166;2023-12-29T18:34:50;18.00;;;10.93;;
80340;SDS011;69656;44.498;0.166;2023-12-29T18:40:22;17.50;;;10.90;;
80340;SDS011;69656;44.498;0.166;2023-12-29T18:45:54;23.07;;;11.10;;
80340;SDS011;69656;44.498;0.166;2023-12-29T18:51:26;20.63;;;11.00;;
80340;SDS011;69656;44.498;0.166;2023-12-29T18:57:00;20.73;;;11.30;;
80340;SDS011;69656;44.498;0.166;2023-12-29T19:02:32;19.63;;;11.83;;
80340;SDS011;69656;44.498;0.166;2023-12-29T19:08:04;17.73;;;11.23;;
80340;SDS011;69656;44.498;0.166;2023-12-29T19:13:38;20.13;;;11.80;;
80340;SDS011;69656;44.498;0.166;2023-12-29T19:19:09;25.83;;;13.57;;
80340;SDS011;69656;44.498;0.166;2023-12-29T19:24:42;26.17;;;13.73;;
80340;SDS011;69656;44.498;0.166;2023-12-29T19:30:15;21.13;;;12.87;;
80340;SDS011;69656;44.498;0.166;2023-12-29T19:35:47;24.93;;;13.13;;
80340;SDS011;69656;44.498;0.166;2023-12-29T19:41:20;24.60;;;14.17;;
80340;SDS011;69656;44.498;0.166;2023-12-29T19:46:53;24.37;;;13.80;;
80340;SDS011;69656;44.498;0.166;2023-12-29T19:52:26;30.47;;;15.93;;
80340;SDS011;69656;44.498;0.166;2023-12-29T19:57:59;22.33;;;13.90;;
80340;SDS011;69656;44.498;0.166;2023-12-29T20:03:31;26.50;;;14.47;;
80340;SDS011;69656;44.498;0.166;2023-12-29T20:09:05;21.43;;;12.40;;
80340;SDS011;69656;44.498;0.166;2023-12-29T20:14:38;23.10;;;12.80;;
80340;SDS011;69656;44.498;0.166;2023-12-29T20:20:10;30.93;;;17.03;;
80340;SDS011;69656;44.498;0.166;2023-12-29T20:25:41;34.57;;;16.30;;
80340;SDS011;69656;44.498;0.166;2023-12-29T20:31:23;27.27;;;15.23;;
80340;SDS011;69656;44.498;0.166;2023-12-29T20:36:47;26.80;;;15.50;;
80340;SDS011;69656;44.498;0.166;2023-12-29T20:42:20;23.07;;;13.77;;
80340;SDS011;69656;44.498;0.166;2023-12-29T20:47:52;27.30;;;14.20;;
80340;SDS011;69656;44.498;0.166;2023-12-29T20:53:24;23.47;;;13.53;;
80340;SDS011;69656;44.498;0.166;2023-12-29T20:58:56;25.57;;;15.23;;
80340;SDS011;69656;44.498;0.166;2023-12-29T21:04:28;28.30;;;14.47;;
80340;SDS011;69656;44.498;0.166;2023-12-29T21:10:02;26.80;;;15.33;;
80340;SDS011;69656;44.498;0.166;2023-12-29T21:15:33;24.83;;;14.37;;
80340;SDS011;69656;44.498;0.166;2023-12-29T21:21:07;30.07;;;17.10;;
80340;SDS011;69656;44.498;0.166;2023-12-29T21:26:39;33.77;;;15.93;;
80340;SDS011;69656;44.498;0.166;2023-12-29T21:32:12;36.00;;;18.13;;
80340;SDS011;69656;44.498;0.166;2023-12-29T21:37:44;44.93;;;20.53;;
80340;SDS011;69656;44.498;0.166;2023-12-29T21:43:16;45.77;;;20.43;;
80340;SDS011;69656;44.498;0.166;2023-12-29T21:48:49;43.60;;;18.83;;
80340;SDS011;69656;44.498;0.166;2023-12-29T21:54:21;66.43;;;20.83;;
80340;SDS011;69656;44.498;0.166;2023-12-29T21:59:53;47.70;;;19.87;;
80340;SDS011;69656;44.498;0.166;2023-12-29T22:05:26;132.53;;;43.20;;
80340;SDS011;69656;44.498;0.166;2023-12-29T22:10:59;70.60;;;27.30;;
80340;SDS011;69656;44.498;0.166;2023-12-29T22:19:57;48.00;;;22.40;;
80340;SDS011;69656;44.498;0.166;2023-12-29T22:22:04;45.23;;;18.83;;
80340;SDS011;69656;44.498;0.166;2023-12-29T22:27:37;81.10;;;27.97;;
80340;SDS011;69656;44.498;0.166;2023-12-29T22:33:09;102.57;;;24.80;;
80340;SDS011;69656;44.498;0.166;2023-12-29T22:38:42;74.23;;;24.33;;
80340;SDS011;69656;44.498;0.166;2023-12-29T22:44:15;314.43;;;38.13;;
80340;SDS011;69656;44.498;0.166;2023-12-29T22:49:49;229.93;;;30.70;;
80340;SDS011;69656;44.498;0.166;2023-12-29T22:55:21;242.63;;;30.13;;
80340;SDS011;69656;44.498;0.166;2023-12-29T23:00:54;78.70;;;23.07;;
80340;SDS011;69656;44.498;0.166;2023-12-29T23:06:26;49.23;;;21.03;;
80340;SDS011;69656;44.498;0.166;2023-12-29T23:11:58;41.87;;;20.10;;
80340;SDS011;69656;44.498;0.166;2023-12-29T23:17:31;45.90;;;21.83;;
80340;SDS011;69656;44.498;0.166;2023-12-29T23:23:04;43.33;;;18.57;;
80340;SDS011;69656;44.498;0.166;2023-12-29T23:28:38;51.53;;;23.17;;
80340;SDS011;69656;44.498;0.166;2023-12-29T23:34:10;116.13;;;27.10;;
80340;SDS011;69656;44.498;0.166;2023-12-29T23:39:43;162.53;;;29.17;;
80340;SDS011;69656;44.498;0.166;2023-12-29T23:45:17;54.30;;;23.50;;
80340;SDS011;69656;44.498;0.166;2023-12-29T23:50:49;66.73;;;23.13;;
80340;SDS011;69656;44.498;0.166;2023-12-29T23:56:22;131.93;;;22.67;;
